createdAt,value
2023-03-17T00:01:24.580Z,5.13
2023-03-17T00:05:24.864Z,5.12
2023-03-17T00:09:24.827Z,4.83
2023-03-17T00:13:24.727Z,5.00
2023-03-17T00:17:24.767Z,4.94
2023-03-17T00:21:24.721Z,4.93
2023-03-17T00:25:24.649Z,4.87
2023-03-17T00:29:24.618Z,4.78
2023-03-17T00:33:24.600Z,4.81
2023-03-17T00:37:24.621Z,4.74
2023-03-17T00:41:24.503Z,4.98
2023-03-17T00:45:24.502Z,4.74
2023-03-17T00:49:25.201Z,4.67
2023-03-17T00:53:24.406Z,4.77
2023-03-17T00:57:24.320Z,4.66
2023-03-17T01:01:24.344Z,4.46
2023-03-17T01:05:24.321Z,4.23
2023-03-17T01:09:24.309Z,4.29
2023-03-17T01:13:24.208Z,4.29
2023-03-17T01:17:24.188Z,4.28
2023-03-17T01:21:24.155Z,4.25
2023-03-17T01:25:24.282Z,4.33
2023-03-17T01:29:24.361Z,4.37
2023-03-17T01:33:24.349Z,4.40
2023-03-17T01:37:24.317Z,4.61
2023-03-17T01:41:24.789Z,4.75
2023-03-17T01:45:24.382Z,4.96
2023-03-17T01:49:24.246Z,5.04
2023-03-17T01:53:24.210Z,5.22
2023-03-17T01:57:24.241Z,5.13
2023-03-17T02:01:24.262Z,5.36
2023-03-17T02:05:24.156Z,5.30
2023-03-17T02:09:24.114Z,5.20
2023-03-17T02:13:24.076Z,5.08
2023-03-17T02:17:24.060Z,5.13
2023-03-17T02:22:35.864Z,4.94
2023-03-17T02:26:35.843Z,4.86
2023-03-17T02:30:35.805Z,4.70
2023-03-17T02:34:36.073Z,4.95
2023-03-17T02:38:35.843Z,4.99
2023-03-17T02:42:36.138Z,5.04
2023-03-17T02:46:36.102Z,5.02
2023-03-17T02:50:36.304Z,4.70
2023-03-17T02:54:36.303Z,4.64
2023-03-17T02:58:36.499Z,4.56
2023-03-17T03:02:36.699Z,4.43
2023-03-17T03:06:36.730Z,4.41
2023-03-17T03:10:36.830Z,4.47
2023-03-17T03:14:36.970Z,4.47
2023-03-17T03:18:36.961Z,4.18
2023-03-17T03:22:37.101Z,4.15
2023-03-17T03:26:37.065Z,3.92
2023-03-17T03:30:37.145Z,4.01
2023-03-17T03:34:37.228Z,3.96
2023-03-17T03:38:37.232Z,3.85
2023-03-17T03:42:37.309Z,3.78
2023-03-17T03:46:37.398Z,3.75
2023-03-17T03:50:37.510Z,3.89
2023-03-17T03:54:37.662Z,3.95
2023-03-17T03:58:37.774Z,4.19
2023-03-17T04:02:38.023Z,4.16
2023-03-17T04:06:38.005Z,4.00
2023-03-17T04:10:38.058Z,4.12
2023-03-17T04:14:38.117Z,4.13
2023-03-17T04:18:38.224Z,4.05
2023-03-17T04:22:38.354Z,4.08
2023-03-17T04:26:38.430Z,4.28
2023-03-17T04:30:38.494Z,4.34
2023-03-17T04:34:38.565Z,4.38
2023-03-17T04:38:38.656Z,4.34
2023-03-17T04:42:38.738Z,4.09
2023-03-17T04:46:38.869Z,4.17
2023-03-17T04:50:39.093Z,3.88
2023-03-17T04:54:39.160Z,3.75
2023-03-17T04:58:39.432Z,3.71
2023-03-17T05:02:39.490Z,3.61
2023-03-17T05:06:39.518Z,3.41
2023-03-17T05:10:39.722Z,3.62
2023-03-17T05:14:39.931Z,3.77
2023-03-17T05:18:40.007Z,3.78
2023-03-17T05:22:40.089Z,3.78
2023-03-17T05:26:40.200Z,3.82
2023-03-17T05:30:40.295Z,4.00
2023-03-17T05:34:40.457Z,4.15
2023-03-17T05:38:40.685Z,4.28
2023-03-17T05:42:40.759Z,4.07
2023-03-17T05:46:40.833Z,4.21
2023-03-17T05:50:40.910Z,4.17
2023-03-17T05:54:40.997Z,4.24
2023-03-17T05:58:41.167Z,4.48
2023-03-17T06:02:41.287Z,4.57
2023-03-17T06:06:41.346Z,4.84
2023-03-17T06:10:41.429Z,5.00
2023-03-17T06:14:41.507Z,5.02
2023-03-17T06:18:41.587Z,5.40
2023-03-17T06:22:55.278Z,5.61
2023-03-17T06:26:42.573Z,5.53
2023-03-17T06:30:42.282Z,5.73
2023-03-17T06:34:42.062Z,5.69
2023-03-17T06:38:42.858Z,5.91
2023-03-17T06:42:41.996Z,5.90
2023-03-17T06:46:43.158Z,5.82
2023-03-17T06:50:42.552Z,5.80
2023-03-17T06:54:44.160Z,6.11
2023-03-17T06:58:42.882Z,6.24
2023-03-17T07:02:48.777Z,6.24
2023-03-17T07:06:42.535Z,6.56
2023-03-17T07:10:43.553Z,6.36
2023-03-17T07:14:42.494Z,6.68
2023-03-17T07:18:42.455Z,6.67
2023-03-17T07:22:42.848Z,6.59
2023-03-17T07:26:42.402Z,6.59
2023-03-17T07:30:42.380Z,7.30
2023-03-17T07:34:42.803Z,7.50
2023-03-17T07:38:43.567Z,7.24
2023-03-17T07:42:42.385Z,7.53
2023-03-17T07:46:42.263Z,7.76
2023-03-17T07:50:42.356Z,7.74
2023-03-17T07:54:43.112Z,7.77
2023-03-17T07:58:42.490Z,7.77
2023-03-17T08:02:42.700Z,7.68
2023-03-17T08:06:43.129Z,7.94
2023-03-17T08:10:43.534Z,8.07
2023-03-17T08:14:42.988Z,8.44
2023-03-17T08:18:43.291Z,9.01
2023-03-17T08:22:44.102Z,9.28
2023-03-17T08:26:43.498Z,9.59
2023-03-17T08:30:43.825Z,9.72
2023-03-17T08:34:43.875Z,9.88
2023-03-17T08:38:45.447Z,10.30
2023-03-17T08:42:44.026Z,10.54
2023-03-17T08:46:45.129Z,10.31
2023-03-17T08:50:45.192Z,10.65
2023-03-17T08:54:44.424Z,11.01
2023-03-17T08:58:46.980Z,11.11
2023-03-17T09:02:45.767Z,11.56
2023-03-17T09:07:01.792Z,11.57
2023-03-17T09:10:45.893Z,11.50
2023-03-17T09:14:45.242Z,11.79
2023-03-17T09:18:45.729Z,12.10
2023-03-17T09:22:44.877Z,12.47
2023-03-17T09:26:45.222Z,12.73
2023-03-17T09:30:45.225Z,12.86
2023-03-17T09:34:46.329Z,12.88
2023-03-17T09:38:52.250Z,13.24
2023-03-17T09:42:45.551Z,13.39
2023-03-17T09:46:46.877Z,13.89
2023-03-17T09:50:46.116Z,14.11
2023-03-17T09:54:45.474Z,14.33
2023-03-17T09:58:45.440Z,14.78
2023-03-17T10:02:45.336Z,14.71
2023-03-17T10:06:45.702Z,14.87
2023-03-17T10:10:46.711Z,15.18
2023-03-17T10:14:46.067Z,15.39
2023-03-17T10:18:45.572Z,15.39
2023-03-17T10:22:45.556Z,15.50
2023-03-17T10:26:45.731Z,15.71
2023-03-17T10:30:46.411Z,15.54
2023-03-17T10:34:46.323Z,15.58
2023-03-17T10:38:46.185Z,15.86
2023-03-17T10:42:46.692Z,15.85
2023-03-17T10:46:46.518Z,16.15
2023-03-17T10:50:48.581Z,16.57
2023-03-17T10:54:46.462Z,16.69
2023-03-17T10:58:46.631Z,16.91
2023-03-17T11:02:47.141Z,17.04
2023-03-17T11:06:46.283Z,17.31
2023-03-17T11:10:46.292Z,17.58
2023-03-17T11:14:46.418Z,17.94
2023-03-17T11:18:46.194Z,17.70
2023-03-17T11:22:46.171Z,17.86
2023-03-17T11:26:46.127Z,18.26
2023-03-17T11:30:46.340Z,18.73
2023-03-17T11:34:46.711Z,18.79
2023-03-17T11:38:46.140Z,19.09
2023-03-17T11:42:45.946Z,19.04
2023-03-17T11:46:46.097Z,19.28
2023-03-17T11:50:46.284Z,19.14
2023-03-17T11:54:46.355Z,18.82
2023-03-17T11:58:46.683Z,18.90
2023-03-17T12:02:46.704Z,19.19
2023-03-17T12:06:46.860Z,19.36
2023-03-17T12:10:46.926Z,19.85
2023-03-17T12:14:47.148Z,19.73
2023-03-17T12:18:47.806Z,20.49
2023-03-17T12:22:47.374Z,20.55
2023-03-17T12:26:47.402Z,20.70
2023-03-17T12:30:47.469Z,20.53
2023-03-17T12:34:47.606Z,20.67
2023-03-17T12:38:47.731Z,20.51
2023-03-17T12:42:47.820Z,20.65
2023-03-17T12:46:48.058Z,20.68
2023-03-17T12:50:48.069Z,21.04
2023-03-17T12:54:48.281Z,21.08
2023-03-17T12:58:49.129Z,21.35
2023-03-17T13:02:48.553Z,21.14
2023-03-17T13:06:48.727Z,21.23
2023-03-17T13:10:48.786Z,21.60
2023-03-17T13:14:48.907Z,21.46
2023-03-17T13:18:49.655Z,21.24
2023-03-17T13:22:48.943Z,21.29
2023-03-17T13:26:49.190Z,21.67
2023-03-17T13:30:49.167Z,22.42
2023-03-17T13:34:49.268Z,23.35
2023-03-17T13:39:05.113Z,23.66
2023-03-17T13:42:50.339Z,23.85
2023-03-17T13:46:49.812Z,23.56
2023-03-17T13:50:49.265Z,23.64
2023-03-17T13:54:49.300Z,23.66
2023-03-17T13:58:49.414Z,23.95
2023-03-17T14:02:49.488Z,23.52
2023-03-17T14:06:49.616Z,23.33
2023-03-17T14:10:49.795Z,23.89
2023-03-17T14:14:50.023Z,24.19
2023-03-17T14:18:50.709Z,23.55
2023-03-17T14:22:50.229Z,23.65
2023-03-17T14:26:50.678Z,23.71
2023-03-17T14:30:50.421Z,23.97
2023-03-17T14:34:50.470Z,24.15
2023-03-17T14:38:50.670Z,24.85
2023-03-17T14:42:50.747Z,25.19
2023-03-17T14:46:50.787Z,25.32
2023-03-17T14:50:51.003Z,25.78
2023-03-17T14:54:51.133Z,26.36
2023-03-17T14:58:51.442Z,26.88
2023-03-17T15:02:52.239Z,26.56
2023-03-17T15:06:51.823Z,26.60
2023-03-17T15:10:52.248Z,27.34
2023-03-17T15:14:51.951Z,27.61
2023-03-17T15:18:52.135Z,27.10
2023-03-17T15:22:52.306Z,26.18
2023-03-17T15:26:52.341Z,25.82
2023-03-17T15:30:52.878Z,25.40
2023-03-17T15:34:52.542Z,25.10
2023-03-17T15:38:52.791Z,24.62
2023-03-17T15:42:52.783Z,24.24
2023-03-17T15:46:52.871Z,24.13
2023-03-17T15:50:53.023Z,23.87
2023-03-17T15:54:53.167Z,23.57
2023-03-17T15:58:53.337Z,23.51
2023-03-17T16:02:53.448Z,23.51
2023-03-17T16:06:53.601Z,23.55
2023-03-17T16:10:53.722Z,23.39
2023-03-17T16:14:53.882Z,22.73
2023-03-17T16:18:54.046Z,22.24
2023-03-17T16:22:54.220Z,21.68
2023-03-17T16:26:54.314Z,21.32
2023-03-17T16:30:54.548Z,21.01
2023-03-17T16:34:54.665Z,20.16
2023-03-17T16:38:54.747Z,19.96
2023-03-17T16:42:54.798Z,19.70
2023-03-17T16:46:55.057Z,19.59
2023-03-17T16:50:55.068Z,19.38
2023-03-17T16:54:55.044Z,18.76
2023-03-17T16:58:55.210Z,18.33
2023-03-17T17:02:55.332Z,18.34
2023-03-17T17:06:55.351Z,17.80
2023-03-17T17:10:55.532Z,17.80
2023-03-17T17:14:55.685Z,17.70
2023-03-17T17:18:55.904Z,17.52
2023-03-17T17:22:55.974Z,17.17
2023-03-17T17:26:56.756Z,17.36
2023-03-17T17:30:56.103Z,17.47
2023-03-17T17:34:56.814Z,17.13
2023-03-17T17:38:56.306Z,16.88
2023-03-17T17:42:56.428Z,16.64
2023-03-17T17:46:56.644Z,16.58
2023-03-17T17:50:56.699Z,16.24
2023-03-17T17:54:56.906Z,16.02
2023-03-17T17:58:57.044Z,16.22
2023-03-17T18:02:57.215Z,16.50
2023-03-17T18:06:57.276Z,16.08
2023-03-17T18:10:57.464Z,15.70
2023-03-17T18:14:57.539Z,15.81
2023-03-17T18:18:57.723Z,15.89
2023-03-17T18:22:57.792Z,15.93
2023-03-17T18:26:57.969Z,15.63
2023-03-17T18:30:58.145Z,15.64
2023-03-17T18:34:58.327Z,15.32
2023-03-17T18:38:58.277Z,14.88
2023-03-17T18:42:58.362Z,14.47
2023-03-17T18:46:58.452Z,14.30
2023-03-17T18:50:58.626Z,14.47
2023-03-17T18:54:58.792Z,14.20
2023-03-17T18:58:58.876Z,14.15
2023-03-17T19:02:59.107Z,14.06
2023-03-17T19:06:59.222Z,13.94
2023-03-17T19:10:59.312Z,14.02
2023-03-17T19:14:59.481Z,13.96
2023-03-17T19:18:59.661Z,14.26
2023-03-17T19:22:59.825Z,14.37
2023-03-17T19:27:00.016Z,14.20
2023-03-17T19:31:00.159Z,14.06
2023-03-17T19:35:00.275Z,14.06
2023-03-17T19:39:00.341Z,13.74
2023-03-17T19:43:00.400Z,13.78
2023-03-17T19:47:00.595Z,13.88
2023-03-17T19:51:00.575Z,13.77
2023-03-17T19:56:01.435Z,13.83
2023-03-17T20:00:01.471Z,13.79
2023-03-17T20:04:01.320Z,13.68
2023-03-17T20:08:01.215Z,13.53
2023-03-17T20:12:01.123Z,13.40
2023-03-17T20:16:01.301Z,13.37
2023-03-17T20:20:01.063Z,13.42
2023-03-17T20:24:00.996Z,13.11
2023-03-17T20:28:00.993Z,12.99
2023-03-17T20:32:00.985Z,13.17
2023-03-17T20:36:00.991Z,12.99
2023-03-17T20:40:00.907Z,12.66
2023-03-17T20:44:00.888Z,12.47
2023-03-17T20:48:01.998Z,12.51
2023-03-17T20:52:01.211Z,12.21
2023-03-17T20:56:02.015Z,12.22
2023-03-17T21:00:01.624Z,12.18
2023-03-17T21:04:01.568Z,12.08
2023-03-17T21:08:01.645Z,12.06
2023-03-17T21:12:01.728Z,12.03
2023-03-17T21:16:01.838Z,11.59
2023-03-17T21:20:01.953Z,11.85
2023-03-17T21:24:02.228Z,11.70
2023-03-17T21:28:02.252Z,11.70
2023-03-17T21:32:02.430Z,11.60
2023-03-17T21:36:02.688Z,11.49
2023-03-17T21:40:02.852Z,11.66
2023-03-17T21:44:03.546Z,11.53
2023-03-17T21:48:02.980Z,11.26
2023-03-17T21:52:03.294Z,11.27
2023-03-17T21:56:03.430Z,11.25
2023-03-17T22:00:03.511Z,11.06
2023-03-17T22:04:03.594Z,10.85
2023-03-17T22:08:04.079Z,10.62
2023-03-17T22:12:03.869Z,10.33
2023-03-17T22:16:03.811Z,10.61
2023-03-17T22:20:04.027Z,10.56
2023-03-17T22:24:04.169Z,10.54
2023-03-17T22:28:04.193Z,10.31
2023-03-17T22:32:04.400Z,10.44
2023-03-17T22:36:04.353Z,10.43
2023-03-17T22:40:04.582Z,10.17
2023-03-17T22:44:05.033Z,10.29
2023-03-17T22:48:05.643Z,10.02
2023-03-17T22:52:04.607Z,10.06
2023-03-17T22:56:04.778Z,10.10
2023-03-17T23:00:04.879Z,10.08
2023-03-17T23:04:04.888Z,10.00
2023-03-17T23:08:04.996Z,9.88
2023-03-17T23:12:05.173Z,9.70
2023-03-17T23:16:05.050Z,9.51
2023-03-17T23:20:05.213Z,9.56
2023-03-17T23:24:05.367Z,9.47
2023-03-17T23:28:05.476Z,9.44
2023-03-17T23:32:06.064Z,9.21
2023-03-17T23:36:05.721Z,9.20
2023-03-17T23:40:05.754Z,9.42
2023-03-17T23:44:05.981Z,9.29
2023-03-17T23:48:06.042Z,9.37
2023-03-17T23:52:06.125Z,9.53
2023-03-17T23:56:06.297Z,9.63
